SFR171 FALE-FACT
Flight info
| Callsign | SFR171 |
|---|---|
| Flight time | N/A |
| Altitude | 36000 |
| Route | TUBIN1B TUBIN UZ3 ESRUK UQ51 GETEN GETEN1B |
| Aircraft | B738/M-SDE2E3FGHIRWXY/LB1 |
Departure
| Time | 2026-04-28 14:49 |
|---|---|
| Airport | King Shaka International Airport (FALE) |
Arrival
| Time | N/A |
|---|---|
| Airport | Cape Town International Airport (FACT) |
| Time | Latitude | Longitude | Altitude | Speed | Heading |
|---|---|---|---|---|---|
| 2026-04-28 14:25 | -29.62029 | 31.10521 | 281 ft | 0 kts | 308° |
| 2026-04-28 14:37 | -29.62036 | 31.10531 | 282 ft | 4 kts | 308° |
| 2026-04-28 14:37 | -29.62051 | 31.10554 | 279 ft | 4 kts | 317° |
| 2026-04-28 14:37 | -29.62071 | 31.10565 | 287 ft | 4 kts | 17° |
| 2026-04-28 14:38 | -29.62091 | 31.10553 | 283 ft | 1 kts | 36° |
| 2026-04-28 14:38 | -29.62095 | 31.10549 | 282 ft | 2 kts | 36° |
| 2026-04-28 14:41 | -29.62095 | 31.10550 | 282 ft | 0 kts | 36° |
| 2026-04-28 14:41 | -29.62082 | 31.10560 | 282 ft | 5 kts | 37° |
| 2026-04-28 14:41 | -29.62043 | 31.10595 | 279 ft | 10 kts | 37° |
| 2026-04-28 14:42 | -29.61990 | 31.10644 | 279 ft | 9 kts | 49° |
| 2026-04-28 14:42 | -29.61998 | 31.10707 | 279 ft | 9 kts | 126° |
| 2026-04-28 14:42 | -29.62040 | 31.10771 | 279 ft | 11 kts | 128° |
| 2026-04-28 14:42 | -29.62087 | 31.10843 | 280 ft | 10 kts | 118° |
| 2026-04-28 14:43 | -29.62064 | 31.10912 | 280 ft | 11 kts | 36° |
| 2026-04-28 14:43 | -29.61990 | 31.10976 | 280 ft | 16 kts | 37° |
| 2026-04-28 14:43 | -29.61892 | 31.11061 | 279 ft | 19 kts | 37° |
| 2026-04-28 14:43 | -29.61772 | 31.11165 | 279 ft | 24 kts | 37° |
| 2026-04-28 14:44 | -29.61636 | 31.11284 | 279 ft | 25 kts | 37° |
| 2026-04-28 14:44 | -29.61503 | 31.11400 | 279 ft | 23 kts | 37° |
| 2026-04-28 14:44 | -29.61377 | 31.11510 | 280 ft | 22 kts | 37° |
| 2026-04-28 14:44 | -29.61255 | 31.11616 | 280 ft | 22 kts | 37° |
| 2026-04-28 14:45 | -29.61127 | 31.11728 | 280 ft | 25 kts | 37° |
| 2026-04-28 14:45 | -29.60978 | 31.11858 | 280 ft | 29 kts | 37° |
| 2026-04-28 14:45 | -29.60820 | 31.11996 | 280 ft | 28 kts | 37° |
| 2026-04-28 14:45 | -29.60671 | 31.12125 | 280 ft | 26 kts | 37° |
| 2026-04-28 14:46 | -29.60532 | 31.12246 | 280 ft | 24 kts | 37° |
| 2026-04-28 14:46 | -29.60402 | 31.12359 | 280 ft | 23 kts | 37° |
| 2026-04-28 14:46 | -29.60277 | 31.12468 | 280 ft | 22 kts | 37° |
| 2026-04-28 14:46 | -29.60156 | 31.12574 | 280 ft | 22 kts | 37° |
| 2026-04-28 14:47 | -29.60038 | 31.12677 | 280 ft | 21 kts | 37° |
| 2026-04-28 14:47 | -29.59930 | 31.12771 | 280 ft | 18 kts | 37° |
| 2026-04-28 14:47 | -29.59835 | 31.12854 | 280 ft | 15 kts | 37° |
| 2026-04-28 14:47 | -29.59771 | 31.12927 | 280 ft | 12 kts | 77° |
| 2026-04-28 14:48 | -29.59807 | 31.13004 | 281 ft | 11 kts | 127° |
| 2026-04-28 14:48 | -29.59857 | 31.13063 | 286 ft | 9 kts | 158° |
| 2026-04-28 14:48 | -29.59902 | 31.13042 | 281 ft | 6 kts | 217° |
| 2026-04-28 14:48 | -29.60010 | 31.12948 | 280 ft | 49 kts | 217° |
| 2026-04-28 14:49 | -29.60480 | 31.12538 | 282 ft | 119 kts | 217° |
| 2026-04-28 14:49 | -29.61303 | 31.11832 | 354 ft | 169 kts | 213° |
| 2026-04-28 14:49 | -29.62247 | 31.11023 | 1175 ft | 166 kts | 213° |
| 2026-04-28 14:49 | -29.63169 | 31.10268 | 2077 ft | 161 kts | 211° |
| 2026-04-28 14:50 | -29.64132 | 31.09506 | 2598 ft | 182 kts | 212° |
| 2026-04-28 14:50 | -29.65234 | 31.08619 | 2804 ft | 208 kts | 214° |
| 2026-04-28 14:50 | -29.66174 | 31.07249 | 3152 ft | 229 kts | 238° |
| 2026-04-28 14:50 | -29.66954 | 31.05605 | 3604 ft | 245 kts | 239° |
| 2026-04-28 14:51 | -29.67794 | 31.03847 | 4285 ft | 252 kts | 239° |
| 2026-04-28 14:51 | -29.68647 | 31.02072 | 5145 ft | 254 kts | 240° |
| 2026-04-28 14:51 | -29.69511 | 31.00289 | 5946 ft | 258 kts | 240° |
| 2026-04-28 14:51 | -29.70389 | 30.98489 | 6773 ft | 259 kts | 241° |
| 2026-04-28 14:52 | -29.71283 | 30.96662 | 7480 ft | 264 kts | 241° |
| 2026-04-28 14:52 | -29.72192 | 30.94814 | 8286 ft | 265 kts | 242° |
| 2026-04-28 14:52 | -29.73102 | 30.92967 | 9106 ft | 266 kts | 243° |
| 2026-04-28 14:52 | -29.74020 | 30.91107 | 9890 ft | 269 kts | 244° |
| 2026-04-28 14:53 | -29.74940 | 30.89245 | 10545 ft | 276 kts | 244° |
| 2026-04-28 14:53 | -29.75923 | 30.87246 | 10731 ft | 299 kts | 244° |
| 2026-04-28 14:53 | -29.76984 | 30.85092 | 10917 ft | 320 kts | 243° |
| 2026-04-28 14:53 | -29.78121 | 30.82786 | 11083 ft | 340 kts | 243° |
| 2026-04-28 14:54 | -29.79315 | 30.80375 | 11512 ft | 349 kts | 243° |
| 2026-04-28 14:54 | -29.80518 | 30.77949 | 12269 ft | 348 kts | 243° |
| 2026-04-28 14:54 | -29.81713 | 30.75541 | 13148 ft | 344 kts | 243° |
| 2026-04-28 14:54 | -29.82901 | 30.73144 | 13874 ft | 345 kts | 243° |
| 2026-04-28 14:55 | -29.84096 | 30.70730 | 14421 ft | 348 kts | 243° |
| 2026-04-28 14:55 | -29.85295 | 30.68303 | 15022 ft | 349 kts | 243° |
| 2026-04-28 14:55 | -29.86497 | 30.65870 | 15620 ft | 350 kts | 243° |
| 2026-04-28 14:55 | -29.87704 | 30.63426 | 16152 ft | 352 kts | 244° |
| 2026-04-28 14:56 | -29.88912 | 30.60974 | 16771 ft | 352 kts | 244° |
| 2026-04-28 14:56 | -29.90105 | 30.58551 | 17375 ft | 353 kts | 244° |
| 2026-04-28 14:56 | -29.91318 | 30.56085 | 17919 ft | 354 kts | 244° |
| 2026-04-28 14:56 | -29.92534 | 30.53613 | 18458 ft | 356 kts | 244° |
| 2026-04-28 14:57 | -29.93755 | 30.51128 | 18920 ft | 356 kts | 244° |
| 2026-04-28 14:57 | -29.94566 | 30.49480 | 19239 ft | 356 kts | 245° |
| 2026-04-28 14:57 | -29.96197 | 30.46159 | 19907 ft | 356 kts | 245° |
| 2026-04-28 14:57 | -29.97420 | 30.43668 | 20339 ft | 358 kts | 245° |
| 2026-04-28 14:58 | -29.98645 | 30.41169 | 20792 ft | 358 kts | 245° |
| 2026-04-28 14:58 | -29.99870 | 30.38669 | 21307 ft | 356 kts | 245° |